sensor_id;sensor_type;location;lat;lon;timestamp;P1;P2;P0
36047;PMS5003;24313;53.370;-6.596;2023-06-01T00:00:25;17;15;
36047;PMS5003;24313;53.370;-6.596;2023-06-01T00:02:52;14;13;
36047;PMS5003;24313;53.370;-6.596;2023-06-01T00:05:19;15;14;
36047;PMS5003;24313;53.370;-6.596;2023-06-01T00:07:47;21;18;
36047;PMS5003;24313;53.370;-6.596;2023-06-01T00:10:14;17;17;
36047;PMS5003;24313;53.370;-6.596;2023-06-01T00:12:41;20;18;
36047;PMS5003;24313;53.370;-6.596;2023-06-01T00:15:09;22;22;
36047;PMS5003;24313;53.370;-6.596;2023-06-01T00:17:36;16;14;
36047;PMS5003;24313;53.370;-6.596;2023-06-01T00:20:05;22;19;
36047;PMS5003;24313;53.370;-6.596;2023-06-01T00:22:32;23;20;
36047;PMS5003;24313;53.370;-6.596;2023-06-01T00:24:59;19;18;
36047;PMS5003;24313;53.370;-6.596;2023-06-01T00:27:26;17;15;
36047;PMS5003;24313;53.370;-6.596;2023-06-01T00:29:54;18;16;
36047;PMS5003;24313;53.370;-6.596;2023-06-01T00:32:21;24;21;
36047;PMS5003;24313;53.370;-6.596;2023-06-01T00:34:49;18;16;
36047;PMS5003;24313;53.370;-6.596;2023-06-01T00:37:16;16;16;
36047;PMS5003;24313;53.370;-6.596;2023-06-01T00:39:44;20;15;
36047;PMS5003;24313;53.370;-6.596;2023-06-01T00:42:12;14;14;
36047;PMS5003;24313;53.370;-6.596;2023-06-01T00:44:39;20;16;
36047;PMS5003;24313;53.370;-6.596;2023-06-01T00:47:06;25;23;
36047;PMS5003;24313;53.370;-6.596;2023-06-01T00:49:34;18;17;
36047;PMS5003;24313;53.370;-6.596;2023-06-01T00:52:01;15;13;
36047;PMS5003;24313;53.370;-6.596;2023-06-01T00:54:29;22;21;
36047;PMS5003;24313;53.370;-6.596;2023-06-01T00:56:56;12;12;
36047;PMS5003;24313;53.370;-6.596;2023-06-01T00:59:23;16;16;
36047;PMS5003;24313;53.370;-6.596;2023-06-01T01:01:51;18;16;
36047;PMS5003;24313;53.370;-6.596;2023-06-01T01:04:19;19;16;
36047;PMS5003;24313;53.370;-6.596;2023-06-01T01:06:49;20;18;
36047;PMS5003;24313;53.370;-6.596;2023-06-01T01:09:25;14;12;
36047;PMS5003;24313;53.370;-6.596;2023-06-01T01:12:00;13;13;
36047;PMS5003;24313;53.370;-6.596;2023-06-01T01:14:35;13;12;
36047;PMS5003;24313;53.370;-6.596;2023-06-01T01:17:08;14;13;
36047;PMS5003;24313;53.370;-6.596;2023-06-01T01:19:46;13;13;
36047;PMS5003;24313;53.370;-6.596;2023-06-01T01:22:24;17;15;
36047;PMS5003;24313;53.370;-6.596;2023-06-01T01:25:10;16;13;
36047;PMS5003;24313;53.370;-6.596;2023-06-01T01:27:56;14;12;
36047;PMS5003;24313;53.370;-6.596;2023-06-01T01:30:34;14;10;
36047;PMS5003;24313;53.370;-6.596;2023-06-01T01:33:04;14;13;
36047;PMS5003;24313;53.370;-6.596;2023-06-01T01:35:33;14;14;
36047;PMS5003;24313;53.370;-6.596;2023-06-01T01:38:00;15;15;
36047;PMS5003;24313;53.370;-6.596;2023-06-01T01:40:28;17;17;
36047;PMS5003;24313;53.370;-6.596;2023-06-01T01:42:55;15;15;
36047;PMS5003;24313;53.370;-6.596;2023-06-01T01:45:24;19;19;
36047;PMS5003;24313;53.370;-6.596;2023-06-01T01:47:54;13;12;
36047;PMS5003;24313;53.370;-6.596;2023-06-01T01:50:28;17;14;
36047;PMS5003;24313;53.370;-6.596;2023-06-01T01:53:01;14;13;
36047;PMS5003;24313;53.370;-6.596;2023-06-01T01:55:31;19;19;
36047;PMS5003;24313;53.370;-6.596;2023-06-01T01:58:01;22;18;
36047;PMS5003;24313;53.370;-6.596;2023-06-01T02:00:29;18;17;
36047;PMS5003;24313;53.370;-6.596;2023-06-01T02:02:58;18;18;
36047;PMS5003;24313;53.370;-6.596;2023-06-01T02:05:26;14;14;
36047;PMS5003;24313;53.370;-6.596;2023-06-01T02:07:53;19;17;
36047;PMS5003;24313;53.370;-6.596;2023-06-01T02:10:20;14;13;
36047;PMS5003;24313;53.370;-6.596;2023-06-01T02:12:48;15;15;
36047;PMS5003;24313;53.370;-6.596;2023-06-01T02:15:15;17;16;
36047;PMS5003;24313;53.370;-6.596;2023-06-01T02:17:42;17;15;
36047;PMS5003;24313;53.370;-6.596;2023-06-01T02:20:09;17;13;
36047;PMS5003;24313;53.370;-6.596;2023-06-01T02:22:37;12;10;
36047;PMS5003;24313;53.370;-6.596;2023-06-01T02:25:05;17;17;
36047;PMS5003;24313;53.370;-6.596;2023-06-01T02:27:32;15;13;
36047;PMS5003;24313;53.370;-6.596;2023-06-01T02:30:00;15;15;
36047;PMS5003;24313;53.370;-6.596;2023-06-01T02:32:27;11;11;
36047;PMS5003;24313;53.370;-6.596;2023-06-01T02:34:54;11;11;
36047;PMS5003;24313;53.370;-6.596;2023-06-01T02:37:21;11;11;
36047;PMS5003;24313;53.370;-6.596;2023-06-01T02:39:48;13;12;
36047;PMS5003;24313;53.370;-6.596;2023-06-01T02:42:16;18;18;
36047;PMS5003;24313;53.370;-6.596;2023-06-01T02:44:43;17;16;
36047;PMS5003;24313;53.370;-6.596;2023-06-01T02:47:10;17;16;
36047;PMS5003;24313;53.370;-6.596;2023-06-01T02:49:37;16;15;
36047;PMS5003;24313;53.370;-6.596;2023-06-01T02:52:05;16;15;
36047;PMS5003;24313;53.370;-6.596;2023-06-01T02:54:33;12;11;
36047;PMS5003;24313;53.370;-6.596;2023-06-01T02:57:01;15;14;
36047;PMS5003;24313;53.370;-6.596;2023-06-01T02:59:27;14;12;
36047;PMS5003;24313;53.370;-6.596;2023-06-01T03:01:55;13;12;
36047;PMS5003;24313;53.370;-6.596;2023-06-01T03:04:22;13;13;
36047;PMS5003;24313;53.370;-6.596;2023-06-01T03:06:49;12;11;
36047;PMS5003;24313;53.370;-6.596;2023-06-01T03:09:17;12;12;
36047;PMS5003;24313;53.370;-6.596;2023-06-01T03:11:44;11;11;
36047;PMS5003;24313;53.370;-6.596;2023-06-01T03:14:11;14;14;
36047;PMS5003;24313;53.370;-6.596;2023-06-01T03:16:38;20;17;
36047;PMS5003;24313;53.370;-6.596;2023-06-01T03:19:05;14;12;
36047;PMS5003;24313;53.370;-6.596;2023-06-01T03:21:33;16;13;
36047;PMS5003;24313;53.370;-6.596;2023-06-01T03:24:00;14;14;
36047;PMS5003;24313;53.370;-6.596;2023-06-01T03:26:28;14;11;
36047;PMS5003;24313;53.370;-6.596;2023-06-01T03:28:55;15;10;
36047;PMS5003;24313;53.370;-6.596;2023-06-01T03:31:22;15;15;
36047;PMS5003;24313;53.370;-6.596;2023-06-01T03:33:49;15;12;
36047;PMS5003;24313;53.370;-6.596;2023-06-01T03:36:16;14;14;
36047;PMS5003;24313;53.370;-6.596;2023-06-01T03:38:44;14;12;
36047;PMS5003;24313;53.370;-6.596;2023-06-01T03:41:12;12;12;
36047;PMS5003;24313;53.370;-6.596;2023-06-01T03:43:39;13;12;
36047;PMS5003;24313;53.370;-6.596;2023-06-01T03:46:06;15;13;
36047;PMS5003;24313;53.370;-6.596;2023-06-01T03:48:34;13;12;
36047;PMS5003;24313;53.370;-6.596;2023-06-01T03:51:01;10;10;
36047;PMS5003;24313;53.370;-6.596;2023-06-01T03:53:28;13;12;
36047;PMS5003;24313;53.370;-6.596;2023-06-01T03:55:55;14;12;
36047;PMS5003;24313;53.370;-6.596;2023-06-01T03:58:22;18;14;
36047;PMS5003;24313;53.370;-6.596;2023-06-01T04:00:50;15;15;
36047;PMS5003;24313;53.370;-6.596;2023-06-01T04:03:17;14;14;
36047;PMS5003;24313;53.370;-6.596;2023-06-01T04:05:45;13;13;
36047;PMS5003;24313;53.370;-6.596;2023-06-01T04:08:12;17;16;
36047;PMS5003;24313;53.370;-6.596;2023-06-01T04:10:39;22;18;
36047;PMS5003;24313;53.370;-6.596;2023-06-01T04:13:06;18;15;
36047;PMS5003;24313;53.370;-6.596;2023-06-01T04:15:34;17;17;
36047;PMS5003;24313;53.370;-6.596;2023-06-01T04:18:02;16;12;
36047;PMS5003;24313;53.370;-6.596;2023-06-01T04:20:30;13;11;
36047;PMS5003;24313;53.370;-6.596;2023-06-01T04:22:57;14;14;
36047;PMS5003;24313;53.370;-6.596;2023-06-01T04:25:24;18;14;
36047;PMS5003;24313;53.370;-6.596;2023-06-01T04:27:51;18;15;
36047;PMS5003;24313;53.370;-6.596;2023-06-01T04:30:19;16;14;
36047;PMS5003;24313;53.370;-6.596;2023-06-01T04:32:47;20;18;
36047;PMS5003;24313;53.370;-6.596;2023-06-01T04:35:19;19;16;
36047;PMS5003;24313;53.370;-6.596;2023-06-01T04:37:51;16;15;
36047;PMS5003;24313;53.370;-6.596;2023-06-01T04:40:19;17;14;
36047;PMS5003;24313;53.370;-6.596;2023-06-01T04:42:47;17;14;
36047;PMS5003;24313;53.370;-6.596;2023-06-01T04:45:15;21;18;
36047;PMS5003;24313;53.370;-6.596;2023-06-01T04:47:42;16;16;
36047;PMS5003;24313;53.370;-6.596;2023-06-01T04:50:10;18;16;
36047;PMS5003;24313;53.370;-6.596;2023-06-01T04:52:38;20;17;
36047;PMS5003;24313;53.370;-6.596;2023-06-01T04:55:11;18;16;
36047;PMS5003;24313;53.370;-6.596;2023-06-01T04:57:39;19;18;
36047;PMS5003;24313;53.370;-6.596;2023-06-01T05:00:08;18;17;
36047;PMS5003;24313;53.370;-6.596;2023-06-01T05:02:36;23;19;
36047;PMS5003;24313;53.370;-6.596;2023-06-01T05:05:03;18;18;
36047;PMS5003;24313;53.370;-6.596;2023-06-01T05:07:36;23;20;
36047;PMS5003;24313;53.370;-6.596;2023-06-01T05:10:05;22;17;
36047;PMS5003;24313;53.370;-6.596;2023-06-01T05:12:35;19;16;
36047;PMS5003;24313;53.370;-6.596;2023-06-01T05:15:04;19;16;
36047;PMS5003;24313;53.370;-6.596;2023-06-01T05:17:37;21;20;
36047;PMS5003;24313;53.370;-6.596;2023-06-01T05:20:06;19;17;
36047;PMS5003;24313;53.370;-6.596;2023-06-01T05:22:34;17;15;
36047;PMS5003;24313;53.370;-6.596;2023-06-01T05:25:06;18;16;
36047;PMS5003;24313;53.370;-6.596;2023-06-01T05:27:34;26;22;
36047;PMS5003;24313;53.370;-6.596;2023-06-01T05:30:01;20;19;
36047;PMS5003;24313;53.370;-6.596;2023-06-01T05:32:29;17;17;
36047;PMS5003;24313;53.370;-6.596;2023-06-01T05:34:56;20;19;
36047;PMS5003;24313;53.370;-6.596;2023-06-01T05:37:24;20;20;
36047;PMS5003;24313;53.370;-6.596;2023-06-01T05:39:51;26;24;
36047;PMS5003;24313;53.370;-6.596;2023-06-01T05:42:19;24;21;
36047;PMS5003;24313;53.370;-6.596;2023-06-01T05:44:46;21;20;
36047;PMS5003;24313;53.370;-6.596;2023-06-01T05:47:14;23;21;
36047;PMS5003;24313;53.370;-6.596;2023-06-01T05:49:41;28;26;
36047;PMS5003;24313;53.370;-6.596;2023-06-01T05:52:09;21;19;
36047;PMS5003;24313;53.370;-6.596;2023-06-01T05:54:36;31;27;
36047;PMS5003;24313;53.370;-6.596;2023-06-01T05:57:03;25;23;
36047;PMS5003;24313;53.370;-6.596;2023-06-01T05:59:30;27;24;
36047;PMS5003;24313;53.370;-6.596;2023-06-01T06:01:58;32;29;
36047;PMS5003;24313;53.370;-6.596;2023-06-01T06:04:25;28;22;
36047;PMS5003;24313;53.370;-6.596;2023-06-01T06:06:53;29;27;
36047;PMS5003;24313;53.370;-6.596;2023-06-01T06:09:20;26;25;
36047;PMS5003;24313;53.370;-6.596;2023-06-01T06:11:47;19;18;
36047;PMS5003;24313;53.370;-6.596;2023-06-01T06:14:14;23;19;
36047;PMS5003;24313;53.370;-6.596;2023-06-01T06:16:41;29;24;
36047;PMS5003;24313;53.370;-6.596;2023-06-01T06:19:09;21;20;
36047;PMS5003;24313;53.370;-6.596;2023-06-01T06:21:37;29;29;
36047;PMS5003;24313;53.370;-6.596;2023-06-01T06:24:04;24;23;
36047;PMS5003;24313;53.370;-6.596;2023-06-01T06:26:32;26;21;
36047;PMS5003;24313;53.370;-6.596;2023-06-01T06:29:04;24;23;
36047;PMS5003;24313;53.370;-6.596;2023-06-01T06:31:30;28;26;
36047;PMS5003;24313;53.370;-6.596;2023-06-01T06:33:58;22;20;
36047;PMS5003;24313;53.370;-6.596;2023-06-01T06:36:25;21;21;
36047;PMS5003;24313;53.370;-6.596;2023-06-01T06:38:52;31;28;
36047;PMS5003;24313;53.370;-6.596;2023-06-01T06:41:20;29;28;
36047;PMS5003;24313;53.370;-6.596;2023-06-01T06:43:47;25;25;
36047;PMS5003;24313;53.370;-6.596;2023-06-01T06:46:14;32;29;
36047;PMS5003;24313;53.370;-6.596;2023-06-01T06:48:42;25;24;
36047;PMS5003;24313;53.370;-6.596;2023-06-01T06:51:10;29;27;
36047;PMS5003;24313;53.370;-6.596;2023-06-01T06:53:38;28;24;
36047;PMS5003;24313;53.370;-6.596;2023-06-01T06:56:05;24;21;
36047;PMS5003;24313;53.370;-6.596;2023-06-01T06:58:33;29;29;
36047;PMS5003;24313;53.370;-6.596;2023-06-01T07:01:00;28;26;
36047;PMS5003;24313;53.370;-6.596;2023-06-01T07:03:32;24;23;
36047;PMS5003;24313;53.370;-6.596;2023-06-01T07:06:00;26;26;
36047;PMS5003;24313;53.370;-6.596;2023-06-01T07:08:28;29;29;
36047;PMS5003;24313;53.370;-6.596;2023-06-01T07:10:55;25;24;
36047;PMS5003;24313;53.370;-6.596;2023-06-01T07:13:22;31;29;
36047;PMS5003;24313;53.370;-6.596;2023-06-01T07:15:55;27;26;
36047;PMS5003;24313;53.370;-6.596;2023-06-01T07:18:22;26;24;
36047;PMS5003;24313;53.370;-6.596;2023-06-01T07:20:50;28;26;
36047;PMS5003;24313;53.370;-6.596;2023-06-01T07:23:18;24;23;
36047;PMS5003;24313;53.370;-6.596;2023-06-01T07:25:46;28;28;
36047;PMS5003;24313;53.370;-6.596;2023-06-01T07:28:15;32;30;
36047;PMS5003;24313;53.370;-6.596;2023-06-01T07:30:43;32;27;
36047;PMS5003;24313;53.370;-6.596;2023-06-01T07:33:11;27;24;
36047;PMS5003;24313;53.370;-6.596;2023-06-01T07:35:46;27;26;
36047;PMS5003;24313;53.370;-6.596;2023-06-01T07:38:19;31;27;
36047;PMS5003;24313;53.370;-6.596;2023-06-01T07:40:53;27;26;
36047;PMS5003;24313;53.370;-6.596;2023-06-01T07:43:23;27;25;
36047;PMS5003;24313;53.370;-6.596;2023-06-01T07:45:51;30;29;
36047;PMS5003;24313;53.370;-6.596;2023-06-01T07:48:19;28;27;
36047;PMS5003;24313;53.370;-6.596;2023-06-01T07:50:52;25;24;
36047;PMS5003;24313;53.370;-6.596;2023-06-01T07:53:20;32;28;
36047;PMS5003;24313;53.370;-6.596;2023-06-01T07:55:54;30;26;
36047;PMS5003;24313;53.370;-6.596;2023-06-01T07:58:22;27;27;
36047;PMS5003;24313;53.370;-6.596;2023-06-01T08:00:50;26;23;
36047;PMS5003;24313;53.370;-6.596;2023-06-01T08:03:18;25;25;
36047;PMS5003;24313;53.370;-6.596;2023-06-01T08:05:45;24;22;
36047;PMS5003;24313;53.370;-6.596;2023-06-01T08:08:18;24;19;
36047;PMS5003;24313;53.370;-6.596;2023-06-01T08:10:52;23;23;
36047;PMS5003;24313;53.370;-6.596;2023-06-01T08:13:19;24;23;
36047;PMS5003;24313;53.370;-6.596;2023-06-01T08:15:52;24;20;
36047;PMS5003;24313;53.370;-6.596;2023-06-01T08:18:25;21;20;
36047;PMS5003;24313;53.370;-6.596;2023-06-01T08:18:37;21;20;
36047;PMS5003;24313;53.370;-6.596;2023-06-01T08:21:05;19;19;
36047;PMS5003;24313;53.370;-6.596;2023-06-01T08:21:16;19;19;
36047;PMS5003;24313;53.370;-6.596;2023-06-01T08:23:43;16;16;
36047;PMS5003;24313;53.370;-6.596;2023-06-01T08:26:11;14;14;
36047;PMS5003;24313;53.370;-6.596;2023-06-01T08:28:43;18;18;
36047;PMS5003;24313;53.370;-6.596;2023-06-01T08:31:11;19;19;
36047;PMS5003;24313;53.370;-6.596;2023-06-01T08:33:39;17;13;
36047;PMS5003;24313;53.370;-6.596;2023-06-01T08:36:07;16;15;
36047;PMS5003;24313;53.370;-6.596;2023-06-01T08:38:34;16;11;
36047;PMS5003;24313;53.370;-6.596;2023-06-01T08:41:03;17;16;
36047;PMS5003;24313;53.370;-6.596;2023-06-01T08:43:37;16;15;
36047;PMS5003;24313;53.370;-6.596;2023-06-01T08:46:05;16;16;
36047;PMS5003;24313;53.370;-6.596;2023-06-01T08:48:33;15;15;
36047;PMS5003;24313;53.370;-6.596;2023-06-01T08:51:01;11;10;
36047;PMS5003;24313;53.370;-6.596;2023-06-01T08:53:29;15;14;
36047;PMS5003;24313;53.370;-6.596;2023-06-01T08:55:58;11;11;
36047;PMS5003;24313;53.370;-6.596;2023-06-01T08:58:25;11;11;
36047;PMS5003;24313;53.370;-6.596;2023-06-01T09:00:53;13;12;
36047;PMS5003;24313;53.370;-6.596;2023-06-01T09:03:23;12;12;
36047;PMS5003;24313;53.370;-6.596;2023-06-01T09:05:50;12;12;
36047;PMS5003;24313;53.370;-6.596;2023-06-01T09:08:18;12;12;
36047;PMS5003;24313;53.370;-6.596;2023-06-01T09:10:45;13;13;
36047;PMS5003;24313;53.370;-6.596;2023-06-01T09:13:13;11;11;
36047;PMS5003;24313;53.370;-6.596;2023-06-01T09:16:07;11;11;
36047;PMS5003;24313;53.370;-6.596;2023-06-01T09:18:34;10;10;
36047;PMS5003;24313;53.370;-6.596;2023-06-01T09:21:09;11;9;
36047;PMS5003;24313;53.370;-6.596;2023-06-01T09:23:43;13;11;
36047;PMS5003;24313;53.370;-6.596;2023-06-01T09:26:11;13;11;
36047;PMS5003;24313;53.370;-6.596;2023-06-01T09:28:56;17;11;
36047;PMS5003;24313;53.370;-6.596;2023-06-01T09:31:45;11;11;
36047;PMS5003;24313;53.370;-6.596;2023-06-01T09:34:14;16;15;
36047;PMS5003;24313;53.370;-6.596;2023-06-01T09:36:42;15;13;
36047;PMS5003;24313;53.370;-6.596;2023-06-01T09:39:11;12;12;
36047;PMS5003;24313;53.370;-6.596;2023-06-01T09:41:50;13;10;
36047;PMS5003;24313;53.370;-6.596;2023-06-01T09:44:23;10;7;
36047;PMS5003;24313;53.370;-6.596;2023-06-01T09:46:52;8;8;
36047;PMS5003;24313;53.370;-6.596;2023-06-01T09:49:23;12;11;
36047;PMS5003;24313;53.370;-6.596;2023-06-01T09:52:11;11;9;
36047;PMS5003;24313;53.370;-6.596;2023-06-01T09:54:41;17;13;
36047;PMS5003;24313;53.370;-6.596;2023-06-01T09:57:09;12;11;
36047;PMS5003;24313;53.370;-6.596;2023-06-01T09:59:39;10;9;
36047;PMS5003;24313;53.370;-6.596;2023-06-01T10:02:07;15;11;
36047;PMS5003;24313;53.370;-6.596;2023-06-01T10:04:39;9;7;
36047;PMS5003;24313;53.370;-6.596;2023-06-01T10:07:08;16;14;
36047;PMS5003;24313;53.370;-6.596;2023-06-01T10:09:43;12;12;
36047;PMS5003;24313;53.370;-6.596;2023-06-01T10:12:14;13;12;
36047;PMS5003;24313;53.370;-6.596;2023-06-01T10:14:41;11;11;
36047;PMS5003;24313;53.370;-6.596;2023-06-01T10:17:08;11;10;
36047;PMS5003;24313;53.370;-6.596;2023-06-01T10:19:40;16;15;
36047;PMS5003;24313;53.370;-6.596;2023-06-01T10:22:10;15;11;
36047;PMS5003;24313;53.370;-6.596;2023-06-01T10:24:50;17;15;
36047;PMS5003;24313;53.370;-6.596;2023-06-01T10:27:28;15;11;
36047;PMS5003;24313;53.370;-6.596;2023-06-01T10:30:02;14;14;
36047;PMS5003;24313;53.370;-6.596;2023-06-01T10:32:45;15;14;
36047;PMS5003;24313;53.370;-6.596;2023-06-01T10:36:09;13;11;
36047;PMS5003;24313;53.370;-6.596;2023-06-01T10:38:42;13;11;
36047;PMS5003;24313;53.370;-6.596;2023-06-01T10:41:26;10;10;
36047;PMS5003;24313;53.370;-6.596;2023-06-01T10:43:57;14;14;
36047;PMS5003;24313;53.370;-6.596;2023-06-01T10:46:41;16;13;
36047;PMS5003;24313;53.370;-6.596;2023-06-01T10:49:09;17;17;
36047;PMS5003;24313;53.370;-6.596;2023-06-01T10:51:42;8;8;
36047;PMS5003;24313;53.370;-6.596;2023-06-01T10:54:41;11;9;
36047;PMS5003;24313;53.370;-6.596;2023-06-01T10:57:24;12;11;
36047;PMS5003;24313;53.370;-6.596;2023-06-01T11:00:29;11;10;
36047;PMS5003;24313;53.370;-6.596;2023-06-01T11:03:06;12;12;
36047;PMS5003;24313;53.370;-6.596;2023-06-01T11:05:41;12;12;
36047;PMS5003;24313;53.370;-6.596;2023-06-01T11:08:50;12;12;
36047;PMS5003;24313;53.370;-6.596;2023-06-01T11:11:18;10;8;
36047;PMS5003;24313;53.370;-6.596;2023-06-01T11:14:04;11;10;
36047;PMS5003;24313;53.370;-6.596;2023-06-01T11:16:34;11;9;
36047;PMS5003;24313;53.370;-6.596;2023-06-01T11:19:02;12;10;
36047;PMS5003;24313;53.370;-6.596;2023-06-01T11:21:32;10;10;
36047;PMS5003;24313;53.370;-6.596;2023-06-01T11:24:04;10;10;
36047;PMS5003;24313;53.370;-6.596;2023-06-01T11:26:34;12;11;
36047;PMS5003;24313;53.370;-6.596;2023-06-01T11:29:05;12;12;
36047;PMS5003;24313;53.370;-6.596;2023-06-01T11:31:53;10;10;
36047;PMS5003;24313;53.370;-6.596;2023-06-01T11:34:28;11;11;
36047;PMS5003;24313;53.370;-6.596;2023-06-01T11:36:59;13;13;
36047;PMS5003;24313;53.370;-6.596;2023-06-01T11:39:27;10;10;
36047;PMS5003;24313;53.370;-6.596;2023-06-01T11:42:03;12;10;
36047;PMS5003;24313;53.370;-6.596;2023-06-01T11:44:32;13;12;
36047;PMS5003;24313;53.370;-6.596;2023-06-01T11:47:03;13;11;
36047;PMS5003;24313;53.370;-6.596;2023-06-01T11:49:41;17;15;
36047;PMS5003;24313;53.370;-6.596;2023-06-01T11:52:09;14;13;
36047;PMS5003;24313;53.370;-6.596;2023-06-01T11:54:37;14;12;
36047;PMS5003;24313;53.370;-6.596;2023-06-01T11:57:05;18;17;
36047;PMS5003;24313;53.370;-6.596;2023-06-01T11:59:37;12;10;
36047;PMS5003;24313;53.370;-6.596;2023-06-01T12:02:15;9;9;
36047;PMS5003;24313;53.370;-6.596;2023-06-01T12:04:53;10;10;
36047;PMS5003;24313;53.370;-6.596;2023-06-01T12:07:22;10;9;
36047;PMS5003;24313;53.370;-6.596;2023-06-01T12:09:50;12;12;
36047;PMS5003;24313;53.370;-6.596;2023-06-01T12:12:18;14;12;
36047;PMS5003;24313;53.370;-6.596;2023-06-01T12:14:46;11;11;
36047;PMS5003;24313;53.370;-6.596;2023-06-01T12:17:14;10;10;
36047;PMS5003;24313;53.370;-6.596;2023-06-01T12:19:47;12;12;
36047;PMS5003;24313;53.370;-6.596;2023-06-01T12:24:10;15;14;
36047;PMS5003;24313;53.370;-6.596;2023-06-01T12:26:43;14;13;
36047;PMS5003;24313;53.370;-6.596;2023-06-01T12:29:11;12;12;
36047;PMS5003;24313;53.370;-6.596;2023-06-01T12:31:38;14;11;
36047;PMS5003;24313;53.370;-6.596;2023-06-01T12:34:17;13;11;
36047;PMS5003;24313;53.370;-6.596;2023-06-01T12:36:45;14;12;
36047;PMS5003;24313;53.370;-6.596;2023-06-01T12:39:12;18;13;
36047;PMS5003;24313;53.370;-6.596;2023-06-01T12:41:48;12;11;
36047;PMS5003;24313;53.370;-6.596;2023-06-01T12:44:18;15;14;
36047;PMS5003;24313;53.370;-6.596;2023-06-01T12:46:55;13;13;
36047;PMS5003;24313;53.370;-6.596;2023-06-01T12:49:23;17;14;
36047;PMS5003;24313;53.370;-6.596;2023-06-01T12:51:50;14;11;
36047;PMS5003;24313;53.370;-6.596;2023-06-01T12:54:18;15;10;
36047;PMS5003;24313;53.370;-6.596;2023-06-01T12:56:47;15;11;
36047;PMS5003;24313;53.370;-6.596;2023-06-01T12:59:15;15;12;
36047;PMS5003;24313;53.370;-6.596;2023-06-01T13:01:43;13;13;
36047;PMS5003;24313;53.370;-6.596;2023-06-01T13:04:25;11;11;
36047;PMS5003;24313;53.370;-6.596;2023-06-01T13:06:53;12;12;
36047;PMS5003;24313;53.370;-6.596;2023-06-01T13:09:24;17;16;
36047;PMS5003;24313;53.370;-6.596;2023-06-01T13:11:57;15;12;
36047;PMS5003;24313;53.370;-6.596;2023-06-01T13:14:25;11;9;
36047;PMS5003;24313;53.370;-6.596;2023-06-01T13:16:52;12;12;
36047;PMS5003;24313;53.370;-6.596;2023-06-01T13:19:20;14;14;
36047;PMS5003;24313;53.370;-6.596;2023-06-01T13:21:52;13;12;
36047;PMS5003;24313;53.370;-6.596;2023-06-01T13:24:19;11;10;
36047;PMS5003;24313;53.370;-6.596;2023-06-01T13:26:48;12;10;
36047;PMS5003;24313;53.370;-6.596;2023-06-01T13:29:21;9;9;
36047;PMS5003;24313;53.370;-6.596;2023-06-01T13:31:54;15;11;
36047;PMS5003;24313;53.370;-6.596;2023-06-01T13:34:22;13;12;
36047;PMS5003;24313;53.370;-6.596;2023-06-01T13:36:49;14;14;
36047;PMS5003;24313;53.370;-6.596;2023-06-01T13:39:17;11;11;
36047;PMS5003;24313;53.370;-6.596;2023-06-01T13:41:54;13;11;
36047;PMS5003;24313;53.370;-6.596;2023-06-01T13:44:22;16;12;
36047;PMS5003;24313;53.370;-6.596;2023-06-01T13:46:49;17;12;
36047;PMS5003;24313;53.370;-6.596;2023-06-01T13:49:22;11;9;
36047;PMS5003;24313;53.370;-6.596;2023-06-01T13:51:49;10;10;
36047;PMS5003;24313;53.370;-6.596;2023-06-01T13:54:17;11;11;
36047;PMS5003;24313;53.370;-6.596;2023-06-01T13:56:44;8;7;
36047;PMS5003;24313;53.370;-6.596;2023-06-01T13:59:12;10;10;
36047;PMS5003;24313;53.370;-6.596;2023-06-01T14:01:39;12;11;
36047;PMS5003;24313;53.370;-6.596;2023-06-01T14:04:06;12;12;
36047;PMS5003;24313;53.370;-6.596;2023-06-01T14:06:34;11;11;
36047;PMS5003;24313;53.370;-6.596;2023-06-01T14:09:06;9;9;
36047;PMS5003;24313;53.370;-6.596;2023-06-01T14:11:33;12;11;
36047;PMS5003;24313;53.370;-6.596;2023-06-01T14:14:01;12;12;
36047;PMS5003;24313;53.370;-6.596;2023-06-01T14:16:29;11;11;
36047;PMS5003;24313;53.370;-6.596;2023-06-01T14:18:56;11;11;
36047;PMS5003;24313;53.370;-6.596;2023-06-01T14:21:25;10;9;
36047;PMS5003;24313;53.370;-6.596;2023-06-01T14:23:52;9;9;
36047;PMS5003;24313;53.370;-6.596;2023-06-01T14:26:20;8;7;
36047;PMS5003;24313;53.370;-6.596;2023-06-01T14:28:48;8;8;
36047;PMS5003;24313;53.370;-6.596;2023-06-01T14:31:20;10;8;
36047;PMS5003;24313;53.370;-6.596;2023-06-01T14:33:48;12;10;
36047;PMS5003;24313;53.370;-6.596;2023-06-01T14:36:16;9;8;
36047;PMS5003;24313;53.370;-6.596;2023-06-01T14:38:43;10;9;
36047;PMS5003;24313;53.370;-6.596;2023-06-01T14:41:11;9;9;
36047;PMS5003;24313;53.370;-6.596;2023-06-01T14:43:38;13;10;
36047;PMS5003;24313;53.370;-6.596;2023-06-01T14:46:10;12;9;
36047;PMS5003;24313;53.370;-6.596;2023-06-01T14:48:38;10;8;
36047;PMS5003;24313;53.370;-6.596;2023-06-01T14:51:07;10;9;
36047;PMS5003;24313;53.370;-6.596;2023-06-01T14:53:34;14;12;
36047;PMS5003;24313;53.370;-6.596;2023-06-01T14:56:02;11;11;
36047;PMS5003;24313;53.370;-6.596;2023-06-01T14:58:31;10;9;
36047;PMS5003;24313;53.370;-6.596;2023-06-01T15:00:58;12;10;
36047;PMS5003;24313;53.370;-6.596;2023-06-01T15:03:26;13;10;
36047;PMS5003;24313;53.370;-6.596;2023-06-01T15:05:53;11;8;
36047;PMS5003;24313;53.370;-6.596;2023-06-01T15:08:26;7;7;
36047;PMS5003;24313;53.370;-6.596;2023-06-01T15:10:53;10;8;
36047;PMS5003;24313;53.370;-6.596;2023-06-01T15:13:21;8;8;
36047;PMS5003;24313;53.370;-6.596;2023-06-01T15:15:53;8;8;
36047;PMS5003;24313;53.370;-6.596;2023-06-01T15:18:21;8;8;
36047;PMS5003;24313;53.370;-6.596;2023-06-01T15:20:48;13;9;
36047;PMS5003;24313;53.370;-6.596;2023-06-01T15:23:16;9;9;
36047;PMS5003;24313;53.370;-6.596;2023-06-01T15:25:43;10;8;
36047;PMS5003;24313;53.370;-6.596;2023-06-01T15:28:11;9;9;
36047;PMS5003;24313;53.370;-6.596;2023-06-01T15:30:43;11;9;
36047;PMS5003;24313;53.370;-6.596;2023-06-01T15:33:10;12;12;
36047;PMS5003;24313;53.370;-6.596;2023-06-01T15:35:38;9;9;
36047;PMS5003;24313;53.370;-6.596;2023-06-01T15:38:10;10;8;
36047;PMS5003;24313;53.370;-6.596;2023-06-01T15:40:38;11;11;
36047;PMS5003;24313;53.370;-6.596;2023-06-01T15:43:05;7;7;
36047;PMS5003;24313;53.370;-6.596;2023-06-01T15:45:33;8;7;
36047;PMS5003;24313;53.370;-6.596;2023-06-01T15:48:01;11;10;
36047;PMS5003;24313;53.370;-6.596;2023-06-01T15:50:28;8;8;
36047;PMS5003;24313;53.370;-6.596;2023-06-01T15:52:55;7;7;
36047;PMS5003;24313;53.370;-6.596;2023-06-01T15:55:23;10;9;
36047;PMS5003;24313;53.370;-6.596;2023-06-01T15:57:50;12;10;
36047;PMS5003;24313;53.370;-6.596;2023-06-01T16:00:18;7;6;
36047;PMS5003;24313;53.370;-6.596;2023-06-01T16:02:51;9;9;
36047;PMS5003;24313;53.370;-6.596;2023-06-01T16:05:18;7;7;
36047;PMS5003;24313;53.370;-6.596;2023-06-01T16:07:45;8;8;
36047;PMS5003;24313;53.370;-6.596;2023-06-01T16:10:13;13;11;
36047;PMS5003;24313;53.370;-6.596;2023-06-01T16:12:40;10;8;
36047;PMS5003;24313;53.370;-6.596;2023-06-01T16:15:08;11;10;
36047;PMS5003;24313;53.370;-6.596;2023-06-01T16:17:36;8;8;